Time;durP1;ratioP1;P1;durP2;ratioP2;P2;SDS_P1;SDS_P2;PMS_P1;PMS_P2;Temp;Humidity;BMP_temperature;BMP_pressure;BME280_temperature;BME280_humidity;BME280_pressure;Samples;Min_cycle;Max_cycle;Signal;HPM_P1;HPM_P2
2022/04/06 00:01:03;;;;;;;1999.90;999.90;;;;;;;4.49;61.70;99733.56;4939550;28;99154;-71
2022/04/06 00:03:31;;;;;;;1999.90;999.90;;;;;;;4.54;61.54;99731.97;4937798;28;97497;-71
2022/04/06 00:05:58;;;;;;;1999.90;999.90;;;;;;;4.54;61.92;99739.84;4919009;28;97858;-73
2022/04/06 00:08:26;;;;;;;1999.90;999.90;;;;;;;4.57;61.55;99737.34;4939165;28;99404;-71
2022/04/06 00:10:54;;;;;;;1999.90;999.90;;;;;;;4.61;61.53;99748.00;4935683;28;97385;-71
2022/04/06 00:13:21;;;;;;;1999.90;999.90;;;;;;;4.65;61.29;99730.53;4936124;28;97462;-73
2022/04/06 00:15:51;;;;;;;1999.90;999.90;;;;;;;4.68;61.22;99741.16;4953442;28;97338;-72
2022/04/06 00:18:19;;;;;;;1999.90;999.90;;;;;;;4.71;61.21;99736.88;4940486;28;100313;-71
2022/04/06 00:20:50;;;;;;;1999.90;999.90;;;;;;;4.76;61.08;99744.88;4933285;28;98080;-72
2022/04/06 00:23:30;;;;;;;1999.90;999.90;;;;;;;4.76;61.48;99736.97;4936824;28;97273;-71
2022/04/06 00:26:14;;;;;;;1999.90;999.90;;;;;;;5.07;61.71;99739.63;4934315;28;98495;-73
2022/04/06 00:28:56;;;;;;;1999.90;999.90;;;;;;;4.87;62.41;99732.91;4934146;28;98034;-69
2022/04/06 00:31:40;;;;;;;1999.90;999.90;;;;;;;4.81;62.26;99735.38;4934669;28;99228;-71
2022/04/06 00:34:08;;;;;;;1999.90;999.90;;;;;;;4.76;62.62;99737.88;4936406;28;97782;-71
2022/04/06 00:36:36;;;;;;;1999.90;999.90;;;;;;;4.74;62.19;99741.31;4934415;28;98523;-71
2022/04/06 00:39:04;;;;;;;1999.90;999.90;;;;;;;4.70;62.55;99739.47;4936163;28;97932;-70
2022/04/06 00:41:32;;;;;;;1999.90;999.90;;;;;;;4.68;62.32;99733.25;4922901;28;99689;-71
2022/04/06 00:44:10;;;;;;;1999.90;999.90;;;;;;;4.66;62.84;99746.41;4943032;28;96866;-72
2022/04/06 00:46:38;;;;;;;1999.90;999.90;;;;;;;4.64;62.19;99732.28;4952880;28;97183;-73
2022/04/06 00:49:11;;;;;;;1999.90;999.90;;;;;;;4.65;62.38;99741.06;4937761;28;99786;-72
2022/04/06 00:51:40;;;;;;;1999.90;999.90;;;;;;;4.65;61.99;99736.69;4937620;28;98813;-73
2022/04/06 00:54:08;;;;;;;1999.90;999.90;;;;;;;4.95;61.49;99731.38;4935538;28;97410;-71
2022/04/06 00:56:36;;;;;;;1999.90;999.90;;;;;;;4.78;62.49;99722.09;4936403;28;99690;-71
2022/04/06 00:59:04;;;;;;;1999.90;999.90;;;;;;;4.73;62.57;99721.09;4940252;28;97594;-72
2022/04/06 01:01:31;;;;;;;1999.90;999.90;;;;;;;4.68;62.38;99725.34;4918791;28;99883;-71
2022/04/06 01:03:59;;;;;;;1999.90;999.90;;;;;;;4.65;62.74;99717.34;4937941;28;96861;-72
2022/04/06 01:06:28;;;;;;;1999.90;999.90;;;;;;;4.61;62.70;99718.13;4935426;28;97313;-73
2022/04/06 01:08:56;;;;;;;1999.90;999.90;;;;;;;4.60;62.24;99711.06;4936420;28;98683;-71
2022/04/06 01:11:24;;;;;;;1999.90;999.90;;;;;;;4.57;62.33;99713.63;4933968;28;97604;-72
2022/04/06 01:13:53;;;;;;;1999.90;999.90;;;;;;;4.55;62.14;99707.41;4946485;28;97167;-72
2022/04/06 01:16:21;;;;;;;1999.90;999.90;;;;;;;4.53;62.38;99711.75;4935653;28;98199;-72
2022/04/06 01:18:48;;;;;;;1999.90;999.90;;;;;;;4.49;62.27;99717.78;4936901;28;98662;-71
2022/04/06 01:21:16;;;;;;;1999.90;999.90;;;;;;;4.47;62.21;99714.19;4949394;28;98594;-71
2022/04/06 01:23:46;;;;;;;1999.90;999.90;;;;;;;4.44;62.30;99709.75;4938718;28;97037;-72
2022/04/06 01:26:14;;;;;;;1999.90;999.90;;;;;;;4.44;62.15;99722.03;4936417;28;96844;-72
2022/04/06 01:28:42;;;;;;;1999.90;999.90;;;;;;;4.40;61.98;99718.41;4936744;28;99292;-71
2022/04/06 01:31:10;;;;;;;1999.90;999.90;;;;;;;4.42;62.09;99710.56;4935974;28;98915;-70
2022/04/06 01:33:38;;;;;;;1999.90;999.90;;;;;;;4.39;62.41;99716.59;4938303;28;97418;-72
2022/04/06 01:36:06;;;;;;;1999.90;999.90;;;;;;;4.38;62.27;99722.75;4937630;28;97373;-71
2022/04/06 01:38:34;;;;;;;1999.90;999.90;;;;;;;4.40;62.15;99714.88;4933627;28;98993;-72
2022/04/06 01:41:03;;;;;;;1999.90;999.90;;;;;;;4.39;61.95;99718.38;4931939;28;96887;-72
2022/04/06 01:43:31;;;;;;;1999.90;999.90;;;;;;;4.38;62.11;99720.09;4934953;28;99059;-72
2022/04/06 01:46:00;;;;;;;1999.90;999.90;;;;;;;4.38;62.18;99720.09;4932332;28;97807;-72
2022/04/06 01:48:28;;;;;;;1999.90;999.90;;;;;;;4.38;62.16;99719.22;4933018;28;98790;-72
2022/04/06 01:53:41;;;;;;;1999.90;999.90;;;;;;;4.38;61.97;99724.47;4934224;28;98546;-73
2022/04/06 01:56:11;;;;;;;1999.90;999.90;;;;;;;4.39;62.00;99727.16;4933494;28;98687;-70
2022/04/06 01:58:39;;;;;;;1999.90;999.90;;;;;;;4.41;61.73;99719.31;4932587;28;99952;-72
2022/04/06 02:01:06;;;;;;;1999.90;999.90;;;;;;;4.41;61.96;99712.28;4931437;28;97694;-71
2022/04/06 02:03:34;;;;;;;1999.90;999.90;;;;;;;4.42;61.82;99711.44;4931263;28;98810;-74
2022/04/06 02:06:02;;;;;;;1999.90;999.90;;;;;;;4.44;62.02;99722.03;4931866;28;98867;-72
2022/04/06 02:08:30;;;;;;;1999.90;999.90;;;;;;;4.40;62.01;99714.88;4934559;28;101275;-71
2022/04/06 02:10:58;;;;;;;1999.90;999.90;;;;;;;4.40;61.91;99720.16;4932808;28;99021;-70
2022/04/06 02:13:27;;;;;;;1999.90;999.90;;;;;;;4.40;62.07;99733.31;4931730;28;97274;-72
2022/04/06 02:15:55;;;;;;;1999.90;999.90;;;;;;;4.37;62.12;99722.69;4939237;28;97939;-73
2022/04/06 02:18:23;;;;;;;1999.90;999.90;;;;;;;4.35;62.22;99734.94;4936526;28;97450;-71
2022/04/06 02:20:51;;;;;;;1999.90;999.90;;;;;;;4.31;62.65;99720.78;4915389;28;99220;-72
2022/04/06 02:23:18;;;;;;;1999.90;999.90;;;;;;;4.32;62.42;99729.59;4933255;28;97589;-69
2022/04/06 02:25:46;;;;;;;1999.90;999.90;;;;;;;4.28;62.97;99717.16;4932748;28;97683;-69
2022/04/06 02:28:14;;;;;;;1999.90;999.90;;;;;;;4.26;62.47;99725.03;4934191;28;100786;-71
2022/04/06 02:30:43;;;;;;;1999.90;999.90;;;;;;;4.22;63.05;99716.13;4931656;28;98797;-71
2022/04/06 02:33:11;;;;;;;1999.90;999.90;;;;;;;4.19;62.68;99718.69;4933494;28;97489;-70
2022/04/06 02:35:38;;;;;;;1999.90;999.90;;;;;;;4.50;62.23;99714.31;4929550;28;98367;-73
2022/04/06 02:38:06;;;;;;;1999.90;999.90;;;;;;;4.31;63.04;99723.41;4932618;28;99650;-70
2022/04/06 02:40:34;;;;;;;1999.90;999.90;;;;;;;4.21;63.58;99719.63;4938582;28;97052;-71
2022/04/06 02:43:02;;;;;;;1999.90;999.90;;;;;;;4.15;63.56;99716.78;4939059;28;97401;-72
2022/04/06 02:45:29;;;;;;;1999.90;999.90;;;;;;;4.11;63.38;99717.56;4933388;28;98398;-70
2022/04/06 02:47:58;;;;;;;1999.90;999.90;;;;;;;4.08;63.48;99712.19;4935911;28;98793;-71
2022/04/06 02:50:26;;;;;;;1999.90;999.90;;;;;;;4.06;63.52;99727.03;4933908;28;97855;-71
2022/04/06 02:52:54;;;;;;;1999.90;999.90;;;;;;;4.03;63.71;99724.34;4934512;28;98826;-71
2022/04/06 02:55:22;;;;;;;1999.90;999.90;;;;;;;4.02;63.23;99719.91;4934770;28;97330;-74
2022/04/06 02:57:50;;;;;;;1999.90;999.90;;;;;;;4.01;63.24;99720.75;4931356;28;98285;-71
2022/04/06 03:00:18;;;;;;;1999.90;999.90;;;;;;;3.99;63.14;99722.44;4914790;28;100055;-73
2022/04/06 03:02:47;;;;;;;1999.90;999.90;;;;;;;3.97;63.71;99720.63;4920329;28;97946;-71
2022/04/06 03:05:16;;;;;;;1999.90;999.90;;;;;;;3.97;63.14;99708.34;4936778;28;97226;-71
2022/04/06 03:07:46;;;;;;;1999.90;999.90;;;;;;;3.98;63.23;99710.16;4952528;28;99298;-71
2022/04/06 03:10:13;;;;;;;1999.90;999.90;;;;;;;3.97;63.03;99705.72;4930814;28;99874;-72
2022/04/06 03:12:41;;;;;;;1999.90;999.90;;;;;;;3.97;63.42;99710.97;4937056;28;96927;-70
2022/04/06 03:15:10;;;;;;;1999.90;999.90;;;;;;;3.98;63.03;99710.16;4930791;28;98804;-71
2022/04/06 03:17:38;;;;;;;1999.90;999.90;;;;;;;3.98;62.62;99702.25;4935732;28;99352;-70
2022/04/06 03:20:07;;;;;;;1999.90;999.90;;;;;;;3.98;62.90;99709.25;4930483;28;99701;-72
2022/04/06 03:22:36;;;;;;;1999.90;999.90;;;;;;;3.98;62.44;99718.06;4931292;28;98450;-72
2022/04/06 03:25:05;;;;;;;1999.90;999.90;;;;;;;3.98;62.62;99707.53;4936688;28;97720;-70
2022/04/06 03:27:33;;;;;;;1999.90;999.90;;;;;;;3.98;62.66;99699.63;4932945;28;97681;-73
2022/04/06 03:30:02;;;;;;;1999.90;999.90;;;;;;;4.02;62.75;99709.38;4937919;28;98045;-72
2022/04/06 03:32:29;;;;;;;1999.90;999.90;;;;;;;4.05;62.51;99700.69;4934827;28;97760;-74
2022/04/06 03:34:57;;;;;;;1999.90;999.90;;;;;;;4.37;62.66;99699.00;4951772;28;97913;-72
2022/04/06 03:37:25;;;;;;;1999.90;999.90;;;;;;;4.54;62.75;99690.72;4931343;28;98254;-71
2022/04/06 03:39:54;;;;;;;1999.90;999.90;;;;;;;4.37;63.43;99693.72;4933538;28;96959;-71
2022/04/06 03:42:22;;;;;;;1999.90;999.90;;;;;;;4.31;63.40;99699.72;4938609;28;99678;-71
2022/04/06 03:44:50;;;;;;;1999.90;999.90;;;;;;;4.29;63.55;99695.25;4939763;28;98071;-72
2022/04/06 03:47:17;;;;;;;1999.90;999.90;;;;;;;4.26;63.41;99692.53;4937443;28;98996;-71
2022/04/06 03:49:45;;;;;;;1999.90;999.90;;;;;;;4.22;63.15;99689.78;4940455;28;97739;-71
2022/04/06 03:52:13;;;;;;;1999.90;999.90;;;;;;;4.22;63.20;99688.91;4936731;28;97395;-71
2022/04/06 03:54:41;;;;;;;1999.90;999.90;;;;;;;4.20;63.12;99694.16;4918773;28;97881;-71
2022/04/06 03:57:10;;;;;;;1999.90;999.90;;;;;;;4.21;63.05;99697.66;4937681;28;100747;-72
2022/04/06 03:59:37;;;;;;;1999.90;999.90;;;;;;;4.19;62.82;99696.72;4938648;28;99873;-71
2022/04/06 04:02:05;;;;;;;1999.90;999.90;;;;;;;4.19;62.97;99686.19;4936385;28;97209;-73
2022/04/06 04:04:33;;;;;;;1999.90;999.90;;;;;;;4.20;62.71;99696.78;4923285;28;96851;-70
2022/04/06 04:07:01;;;;;;;1999.90;999.90;;;;;;;4.21;62.78;99690.66;4937214;28;100045;-73
2022/04/06 04:09:29;;;;;;;1999.90;999.90;;;;;;;4.23;62.64;99698.59;4936355;28;98780;-72
2022/04/06 04:11:57;;;;;;;1999.90;999.90;;;;;;;4.24;62.61;99693.38;4938336;28;97604;-70
2022/04/06 04:14:26;;;;;;;1999.90;999.90;;;;;;;4.25;62.61;99689.00;4939449;28;96924;-71
2022/04/06 04:16:54;;;;;;;1999.90;999.90;;;;;;;4.24;62.73;99693.38;4940477;28;99284;-71
2022/04/06 04:19:22;;;;;;;1999.90;999.90;;;;;;;4.28;62.39;99696.09;4940331;28;98002;-71
2022/04/06 04:21:50;;;;;;;1999.90;999.90;;;;;;;4.30;61.94;99690.00;4935295;28;97893;-71
2022/04/06 04:24:18;;;;;;;1999.90;999.90;;;;;;;4.29;62.17;99687.34;4939926;28;97151;-73
2022/04/06 04:26:46;;;;;;;1999.90;999.90;;;;;;;4.28;62.14;99688.22;4920427;28;100053;-71
2022/04/06 04:29:14;;;;;;;1999.90;999.90;;;;;;;4.28;62.31;99696.09;4938256;28;97667;-71
2022/04/06 04:31:43;;;;;;;1999.90;999.90;;;;;;;4.30;61.88;99678.63;4922553;28;97002;-70
2022/04/06 04:34:10;;;;;;;1999.90;999.90;;;;;;;4.30;61.96;99694.41;4938438;28;97593;-72
2022/04/06 04:36:38;;;;;;;1999.90;999.90;;;;;;;4.29;61.96;99697.88;4939843;28;101697;-70
2022/04/06 04:39:06;;;;;;;1999.90;999.90;;;;;;;4.34;61.69;99691.00;4932754;28;99415;-69
2022/04/06 04:41:34;;;;;;;1999.90;999.90;;;;;;;4.35;61.72;99693.69;4928559;28;97121;-71
2022/04/06 04:44:02;;;;;;;1999.90;999.90;;;;;;;4.34;61.70;99691.91;4933257;28;97754;-70
2022/04/06 04:46:29;;;;;;;1999.90;999.90;;;;;;;4.34;61.50;99704.16;4939794;28;96805;-71
2022/04/06 04:48:59;;;;;;;1999.90;999.90;;;;;;;4.34;61.52;99694.53;4938874;28;100649;-72
2022/04/06 04:51:28;;;;;;;1999.90;999.90;;;;;;;4.33;61.63;99703.28;4939405;28;97945;-70
2022/04/06 04:53:57;;;;;;;1999.90;999.90;;;;;;;4.35;61.39;99690.16;4939138;28;96835;-73
2022/04/06 04:56:28;;;;;;;1999.90;999.90;;;;;;;4.36;61.42;99689.31;4940417;28;99889;-72
2022/04/06 04:58:56;;;;;;;1999.90;999.90;;;;;;;4.34;61.30;99704.16;4937371;28;99621;-72
2022/04/06 05:01:24;;;;;;;1999.90;999.90;;;;;;;4.34;61.24;99685.72;4938723;28;97343;-71
2022/04/06 05:03:52;;;;;;;1999.90;999.90;;;;;;;4.35;61.24;99696.34;4939561;28;99373;-72
2022/04/06 05:06:21;;;;;;;1999.90;999.90;;;;;;;4.36;61.10;99697.19;4939941;28;97971;-72
2022/04/06 05:08:49;;;;;;;1999.90;999.90;;;;;;;4.36;60.96;99702.47;4939103;28;99140;-72
2022/04/06 05:11:17;;;;;;;1999.90;999.90;;;;;;;4.33;61.01;99705.03;4938032;28;97170;-71
2022/04/06 05:13:44;;;;;;;1999.90;999.90;;;;;;;4.33;60.90;99705.03;4954823;28;97142;-71
2022/04/06 05:16:12;;;;;;;1999.90;999.90;;;;;;;4.61;60.17;99697.06;4933941;28;98912;-72
2022/04/06 05:18:40;;;;;;;1999.90;999.90;;;;;;;4.47;60.89;99703.66;4939740;28;99306;-71
2022/04/06 05:21:09;;;;;;;1999.90;999.90;;;;;;;4.46;60.71;99709.78;4937783;28;97412;-72
2022/04/06 05:23:38;;;;;;;1999.90;999.90;;;;;;;4.43;60.80;99714.94;4940638;28;97540;-71
2022/04/06 05:26:06;;;;;;;1999.90;999.90;;;;;;;4.44;60.64;99703.59;4939832;28;97708;-70
2022/04/06 05:28:34;;;;;;;1999.90;999.90;;;;;;;4.46;60.51;99707.16;4939787;28;99361;-71
2022/04/06 05:31:01;;;;;;;1999.90;999.90;;;;;;;4.49;60.45;99701.97;4938736;28;96951;-71
2022/04/06 05:33:29;;;;;;;1999.90;999.90;;;;;;;4.50;60.45;99698.50;4941526;28;97191;-70
2022/04/06 05:35:57;;;;;;;1999.90;999.90;;;;;;;4.52;60.24;99692.41;4940661;28;97677;-72
2022/04/06 05:38:25;;;;;;;1999.90;999.90;;;;;;;4.52;60.18;99694.19;4938678;28;98448;-71
2022/04/06 05:40:54;;;;;;;1999.90;999.90;;;;;;;4.53;60.17;99699.47;4937547;28;96769;-72
2022/04/06 05:43:22;;;;;;;1999.90;999.90;;;;;;;4.52;60.23;99694.19;4940028;28;97658;-70
2022/04/06 05:45:50;;;;;;;1999.90;999.90;;;;;;;4.54;60.01;99695.06;4940606;28;97811;-73
2022/04/06 05:48:18;;;;;;;1999.90;999.90;;;;;;;4.54;60.37;99695.97;4940146;28;97725;-71
2022/04/06 05:50:45;;;;;;;1999.90;999.90;;;;;;;4.53;60.03;99694.22;4939461;28;97424;-71
2022/04/06 05:53:13;;;;;;;1999.90;999.90;;;;;;;4.53;60.02;99695.94;4938243;28;96999;-72
2022/04/06 05:55:42;;;;;;;1999.90;999.90;;;;;;;4.53;59.76;99698.56;4938499;28;97171;-71
2022/04/06 05:58:11;;;;;;;1999.90;999.90;;;;;;;4.54;59.86;99695.97;4922901;28;98499;-71
2022/04/06 06:00:39;;;;;;;1999.90;999.90;;;;;;;4.54;59.85;99695.06;4939663;28;96973;-72
2022/04/06 06:03:07;;;;;;;1999.90;999.90;;;;;;;4.56;59.83;99701.28;4939048;28;97865;-73
2022/04/06 06:05:36;;;;;;;1999.90;999.90;;;;;;;4.56;59.68;99706.56;4937683;28;98676;-71
2022/04/06 06:08:27;;;;;;;1999.90;999.90;;;;;;;4.58;59.70;99692.59;4939230;28;97384;-71
2022/04/06 06:10:57;;;;;;;1999.90;999.90;;;;;;;4.59;59.52;99697.00;4938264;28;97856;-71
2022/04/06 06:13:41;;;;;;;1999.90;999.90;;;;;;;4.62;59.32;99693.56;4938583;28;97520;-72
2022/04/06 06:16:12;;;;;;;1999.90;999.90;;;;;;;4.65;59.52;99689.28;4937731;28;98662;-71
2022/04/06 06:18:40;;;;;;;1999.90;999.90;;;;;;;4.68;59.31;99685.84;4938518;28;100593;-71
2022/04/06 06:21:07;;;;;;;1999.90;999.90;;;;;;;4.72;59.23;99695.59;4937272;28;97118;-75
2022/04/06 06:23:35;;;;;;;1999.90;999.90;;;;;;;4.74;59.21;99688.63;4939341;28;98519;-73
2022/04/06 06:26:03;;;;;;;1999.90;999.90;;;;;;;4.75;59.02;99696.59;4940111;28;97929;-72
2022/04/06 06:28:31;;;;;;;1999.90;999.90;;;;;;;4.77;58.77;99688.72;4940693;28;97568;-71
2022/04/06 06:31:00;;;;;;;1999.90;999.90;;;;;;;4.78;58.65;99683.47;4918808;28;97093;-73
2022/04/06 06:33:27;;;;;;;1999.90;999.90;;;;;;;4.79;58.69;99692.28;4939936;28;97744;-70
2022/04/06 06:35:56;;;;;;;1999.90;999.90;;;;;;;4.82;58.47;99687.09;4940216;28;98050;-71
2022/04/06 06:38:24;;;;;;;1999.90;999.90;;;;;;;4.85;58.62;99687.16;4939166;28;100968;-70
2022/04/06 06:40:52;;;;;;;1999.90;999.90;;;;;;;4.85;58.72;99698.59;4940363;28;97529;-72
2022/04/06 06:43:20;;;;;;;1999.90;999.90;;;;;;;4.85;58.49;99697.69;4936220;28;97561;-73
2022/04/06 06:45:48;;;;;;;1999.90;999.90;;;;;;;4.85;58.22;99685.41;4937160;28;98614;-70
2022/04/06 06:48:17;;;;;;;1999.90;999.90;;;;;;;4.88;58.20;99687.25;4938342;28;97654;-73
2022/04/06 06:50:44;;;;;;;1999.90;999.90;;;;;;;4.91;58.33;99701.41;4920435;28;96913;-71
2022/04/06 06:53:12;;;;;;;1999.90;999.90;;;;;;;4.93;57.77;99697.06;4939811;28;96827;-70
2022/04/06 06:55:40;;;;;;;1999.90;999.90;;;;;;;4.95;57.76;99690.09;4938550;28;97909;-71
2022/04/06 06:58:08;;;;;;;1999.90;999.90;;;;;;;4.96;57.93;99697.13;4939351;28;99234;-72
2022/04/06 07:00:35;;;;;;;1999.90;999.90;;;;;;;4.97;57.96;99691.00;4941255;28;96793;-72
2022/04/06 07:03:04;;;;;;;1999.90;999.90;;;;;;;5.00;57.53;99683.19;4936922;28;97957;-71
2022/04/06 07:05:33;;;;;;;1999.90;999.90;;;;;;;5.02;57.45;99681.53;4958873;28;101416;-71
2022/04/06 07:08:01;;;;;;;1999.90;999.90;;;;;;;5.05;57.31;99681.59;4940404;28;99651;-71
2022/04/06 07:10:29;;;;;;;1999.90;999.90;;;;;;;5.08;57.45;99683.44;4954838;28;97750;-71
2022/04/06 07:12:57;;;;;;;1999.90;999.90;;;;;;;5.13;57.22;99681.78;4941582;28;98250;-72
2022/04/06 07:15:25;;;;;;;1999.90;999.90;;;;;;;5.16;57.07;99681.84;4938390;28;98581;-71
2022/04/06 07:17:53;;;;;;;1999.90;999.90;;;;;;;5.19;56.84;99692.50;4940587;28;97800;-71
2022/04/06 07:20:22;;;;;;;1999.90;999.90;;;;;;;5.18;57.02;99683.69;4938991;28;97661;-73
2022/04/06 07:22:51;;;;;;;1999.90;999.90;;;;;;;5.22;56.84;99679.38;4954013;28;98735;-72
2022/04/06 07:25:19;;;;;;;1999.90;999.90;;;;;;;5.25;56.75;99681.22;4951665;28;99260;-71
2022/04/06 07:27:47;;;;;;;1999.90;999.90;;;;;;;5.27;56.75;99683.03;4942175;28;97702;-72
2022/04/06 07:30:15;;;;;;;1999.90;999.90;;;;;;;5.27;56.35;99683.03;4941222;28;96989;-72
2022/04/06 07:32:43;;;;;;;1999.90;999.90;;;;;;;5.30;56.64;99682.22;4943218;28;97277;-74
2022/04/06 07:35:11;;;;;;;1999.90;999.90;;;;;;;5.33;56.69;99683.19;4939468;28;97730;-73
2022/04/06 07:37:40;;;;;;;1999.90;999.90;;;;;;;5.34;56.73;99679.69;4925715;28;99662;-72
2022/04/06 07:40:11;;;;;;;1999.90;999.90;;;;;;;5.36;56.44;99677.09;4942138;28;97191;-71
2022/04/06 07:42:40;;;;;;;1999.90;999.90;;;;;;;5.39;56.68;99677.16;4941132;28;96976;-72
2022/04/06 07:45:09;;;;;;;1999.90;999.90;;;;;;;5.39;56.63;99680.69;4939881;28;100521;-74
2022/04/06 07:47:38;;;;;;;1999.90;999.90;;;;;;;5.40;56.32;99679.84;4942860;28;97253;-74
2022/04/06 07:50:06;;;;;;;1999.90;999.90;;;;;;;5.44;56.42;99671.16;4938867;28;97272;-70
2022/04/06 07:52:34;;;;;;;1999.90;999.90;;;;;;;5.44;56.13;99670.25;4940412;28;97019;-74
2022/04/06 07:55:04;;;;;;;1999.90;999.90;;;;;;;5.46;56.46;99673.81;4941691;28;99245;-71
2022/04/06 07:57:34;;;;;;;1999.90;999.90;;;;;;;5.47;56.25;99670.31;4953883;28;102324;-72
2022/04/06 08:00:05;;;;;;;1999.90;999.90;;;;;;;5.44;56.15;99660.59;4941053;28;97001;-70
2022/04/06 08:02:33;;;;;;;1999.90;999.90;;;;;;;5.45;56.06;99672.91;4942463;28;97113;-73
2022/04/06 08:05:17;;;;;;;1999.90;999.90;;;;;;;5.47;55.68;99673.84;4940960;28;98556;-73
2022/04/06 08:07:50;;;;;;;1999.90;999.90;;;;;;;5.47;56.00;99683.50;4938957;28;98805;-71
2022/04/06 08:10:32;;;;;;;1999.90;999.90;;;;;;;5.43;55.63;99681.66;4940180;28;96783;-74
2022/04/06 08:13:19;;;;;;;1999.90;999.90;;;;;;;5.40;55.93;99686.84;4937785;28;99317;-72
2022/04/06 08:15:47;;;;;;;1999.90;999.90;;;;;;;5.38;55.64;99684.19;4937714;28;97571;-70
2022/04/06 08:18:14;;;;;;;1999.90;999.90;;;;;;;5.42;55.69;99693.94;4937462;28;97582;-73
2022/04/06 08:20:42;;;;;;;1999.90;999.90;;;;;;;5.41;55.97;99702.69;4938503;28;98069;-72
2022/04/06 08:23:10;;;;;;;1999.90;999.90;;;;;;;5.67;54.93;99698.06;4938919;28;97897;-73
2022/04/06 08:25:38;;;;;;;1999.90;999.90;;;;;;;5.51;54.95;99693.28;4941503;28;98715;-73
2022/04/06 08:28:08;;;;;;;1999.90;999.90;;;;;;;5.49;55.48;99690.59;4957696;28;99468;-72
2022/04/06 08:30:40;;;;;;;1999.90;999.90;;;;;;;5.48;55.42;99694.13;4940530;28;97917;-74
2022/04/06 08:33:10;;;;;;;1999.90;999.90;;;;;;;5.47;55.01;99708.13;4940632;28;96902;-72
2022/04/06 08:35:38;;;;;;;1999.90;999.90;;;;;;;5.44;55.19;99717.72;4939924;28;97546;-74
2022/04/06 08:38:06;;;;;;;1999.90;999.90;;;;;;;5.41;55.32;99729.09;4940824;28;97695;-72
2022/04/06 08:40:35;;;;;;;1999.90;999.90;;;;;;;5.64;54.56;99720.00;4940119;28;96960;-70
2022/04/06 08:43:04;;;;;;;1999.90;999.90;;;;;;;5.76;54.03;99699.16;4939545;28;98801;-73
2022/04/06 08:45:33;;;;;;;1999.90;999.90;;;;;;;5.58;54.73;99684.63;4941115;28;97766;-72
2022/04/06 08:48:03;;;;;;;1999.90;999.90;;;;;;;5.79;54.14;99682.50;4938624;28;97210;-71
2022/04/06 08:50:31;;;;;;;1999.90;999.90;;;;;;;5.63;54.79;99680.38;4934831;28;97190;-72
2022/04/06 08:53:00;;;;;;;1999.90;999.90;;;;;;;5.62;54.90;99673.31;4939612;28;97316;-72
2022/04/06 08:55:33;;;;;;;1999.90;999.90;;;;;;;5.62;54.47;99671.56;4939075;28;99154;-71
2022/04/06 08:58:02;;;;;;;1999.90;999.90;;;;;;;5.86;53.81;99666.84;4937926;28;99022;-73
2022/04/06 09:00:30;;;;;;;1999.90;999.90;;;;;;;6.00;53.70;99653.94;4935394;28;97279;-72
2022/04/06 09:03:05;;;;;;;1999.90;999.90;;;;;;;6.12;52.79;99648.94;4938341;28;97465;-72
2022/04/06 09:06:00;;;;;;;1999.90;999.90;;;;;;;5.89;53.69;99666.91;4936519;28;97585;-69
2022/04/06 09:08:35;;;;;;;1999.90;999.90;;;;;;;5.86;52.80;99682.69;4936634;28;98510;-70
2022/04/06 09:11:10;;;;;;;1999.90;999.90;;;;;;;5.86;53.48;99661.56;4935740;28;97205;-69
2022/04/06 09:13:38;;;;;;;1999.90;999.90;;;;;;;5.87;53.95;99658.06;4941020;28;97275;-71
2022/04/06 09:16:08;;;;;;;1999.90;999.90;;;;;;;5.89;54.15;99659.00;4939313;28;99507;-72
2022/04/06 09:18:40;;;;;;;1999.90;999.90;;;;;;;6.18;53.20;99655.22;4940357;28;97984;-69
2022/04/06 09:21:09;;;;;;;1999.90;999.90;;;;;;;6.09;53.51;99655.03;4937311;28;97219;-71
2022/04/06 09:23:37;;;;;;;1999.90;999.90;;;;;;;6.08;53.01;99666.47;4938860;28;97180;-71
2022/04/06 09:26:06;;;;;;;1999.90;999.90;;;;;;;6.02;53.57;99658.41;4936254;28;97627;-69
2022/04/06 09:28:40;;;;;;;1999.90;999.90;;;;;;;6.00;53.34;99649.56;4954385;28;96982;-71
2022/04/06 09:31:09;;;;;;;1999.90;999.90;;;;;;;6.00;53.39;99660.13;4936890;28;98187;-69
2022/04/06 09:33:41;;;;;;;1999.90;999.90;;;;;;;6.00;53.34;99652.19;4940851;28;98118;-71
2022/04/06 09:36:18;;;;;;;1999.90;999.90;;;;;;;5.91;52.08;99665.19;4956302;28;97910;-71
2022/04/06 09:38:47;;;;;;;1999.90;999.90;;;;;;;5.91;52.99;99654.63;4938996;28;100788;-70
2022/04/06 09:41:15;;;;;;;1999.90;999.90;;;;;;;5.83;53.28;99660.63;4941909;28;99699;-70
2022/04/06 09:43:45;;;;;;;1999.90;999.90;;;;;;;5.80;53.61;99661.44;4925661;28;97699;-71
2022/04/06 09:49:08;;;;;;;1999.90;999.90;;;;;;;5.76;53.25;99677.16;4941105;28;98333;-71
2022/04/06 09:51:36;;;;;;;1999.90;999.90;;;;;;;5.99;52.23;99645.16;4954624;28;97118;-72
2022/04/06 09:54:04;;;;;;;1999.90;999.90;;;;;;;6.11;51.89;99648.03;4938851;28;96913;-71
2022/04/06 09:56:33;;;;;;;1999.90;999.90;;;;;;;6.24;51.49;99655.34;4931068;28;99528;-73
2022/04/06 09:59:08;;;;;;;1999.90;999.90;;;;;;;5.96;52.52;99657.34;4941379;28;98831;-70
2022/04/06 10:01:37;;;;;;;1999.90;999.90;;;;;;;6.17;51.52;99678.97;4940280;28;96900;-71
2022/04/06 10:04:13;;;;;;;1999.90;999.90;;;;;;;5.93;52.48;99658.22;4931454;28;98652;-70
2022/04/06 10:06:49;;;;;;;1999.90;999.90;;;;;;;5.83;52.43;99666.75;4938777;28;99047;-71
2022/04/06 10:09:17;;;;;;;1999.90;999.90;;;;;;;5.78;52.89;99652.59;4922410;28;99194;-73
2022/04/06 10:11:45;;;;;;;1999.90;999.90;;;;;;;5.77;52.61;99653.47;4936891;28;97366;-70
2022/04/06 10:14:13;;;;;;;1999.90;999.90;;;;;;;5.71;53.07;99665.59;4938560;28;96938;-71
2022/04/06 10:16:41;;;;;;;1999.90;999.90;;;;;;;5.94;52.32;99665.25;4937247;28;97915;-70
2022/04/06 10:19:14;;;;;;;1999.90;999.90;;;;;;;5.71;52.61;99661.22;4941461;28;97668;-71
2022/04/06 10:21:48;;;;;;;1999.90;999.90;;;;;;;5.63;52.94;99673.34;4942323;28;97216;-70
2022/04/06 10:24:25;;;;;;;1999.90;999.90;;;;;;;5.56;53.12;99654.69;4939188;28;97058;-71
2022/04/06 10:27:04;;;;;;;1999.90;999.90;;;;;;;5.49;53.02;99652.78;4956807;28;101091;-69
2022/04/06 10:29:32;;;;;;;1999.90;999.90;;;;;;;5.49;53.24;99643.13;4938155;28;100509;-71
2022/04/06 10:32:00;;;;;;;1999.90;999.90;;;;;;;5.50;53.47;99668.66;4941933;28;97346;-70
2022/04/06 10:34:31;;;;;;;1999.90;999.90;;;;;;;5.80;51.91;99648.22;4939172;28;98470;-71
2022/04/06 10:37:07;;;;;;;1999.90;999.90;;;;;;;5.70;51.90;99640.97;4942011;28;98244;-70
2022/04/06 10:39:59;;;;;;;1999.90;999.90;;;;;;;5.89;50.76;99656.34;4936473;28;98328;-70
2022/04/06 10:42:31;;;;;;;1999.90;999.90;;;;;;;5.83;51.56;99634.22;4924815;28;97147;-71
2022/04/06 10:45:00;;;;;;;1999.90;999.90;;;;;;;6.08;50.49;99645.34;4940073;28;97259;-70
2022/04/06 10:47:29;;;;;;;1999.90;999.90;;;;;;;6.23;49.51;99637.72;4938179;28;98728;-71
2022/04/06 10:50:22;;;;;;;1999.90;999.90;;;;;;;6.01;49.97;99639.91;4944260;28;97607;-71
2022/04/06 10:52:52;;;;;;;1999.90;999.90;;;;;;;5.99;50.73;99637.22;4960219;28;97237;-71
2022/04/06 10:55:24;;;;;;;1999.90;999.90;;;;;;;5.98;50.91;99643.34;4944736;28;97649;-70
2022/04/06 10:58:02;;;;;;;1999.90;999.90;;;;;;;5.99;51.11;99658.34;4941295;28;98166;-70
2022/04/06 11:00:31;;;;;;;1999.90;999.90;;;;;;;6.18;49.94;99655.22;4944013;28;97961;-71
2022/04/06 11:03:18;;;;;;;1999.90;999.90;;;;;;;6.31;48.67;99656.38;4940805;28;97552;-70
2022/04/06 11:06:02;;;;;;;1999.90;999.90;;;;;;;6.42;47.70;99659.25;4942091;28;96954;-72
2022/04/06 11:11:46;;;;;;;1999.90;999.90;;;;;;;6.18;48.68;99638.47;4940428;28;98749;-70
2022/04/06 11:14:29;;;;;;;1999.90;999.90;;;;;;;6.08;48.85;99639.16;4939151;28;96868;-71
2022/04/06 11:17:41;;;;;;;1999.90;999.90;;;;;;;5.96;47.02;99644.16;4940649;28;100530;-70
2022/04/06 11:20:11;;;;;;;1999.90;999.90;;;;;;;6.02;49.31;99613.50;4939366;28;101231;-71
2022/04/06 11:22:57;;;;;;;1999.90;999.90;;;;;;;6.38;48.15;99612.50;4940670;28;97658;-70